Terminal Aerodrome Forecast
Issued by NWS

Home | Current Version | Previous Version | Graphics & Text | Print | Product List | Glossary On
Versions: 1 2 3 4 5 6 7 8 9 10 11 12 13 14 15 16 17 18 19 20 21
000
FTUS43 KMPX 150539
TAFRWF
TAF
KRWF 150539Z 1506/1606 29012KT 3SM BR BKN002 BKN050
     FM150730 30012G18KT P6SM SCT005 BKN090
     FM151500 31016G25KT P6SM BKN025
     FM151800 31015G23KT P6SM SCT020 BKN035
     FM160100 32009KT P6SM SCT250=

USA.gov is the U.S. government's official web portal to all federal, state and local government web resources and services.